sensor_id;sensor_type;location;lat;lon;timestamp;temperature;humidity
33067;DHT22;19428;49.024;8.366;2023-04-25T00:01:19;8.80;99.90
33067;DHT22;19428;49.024;8.366;2023-04-25T00:03:45;8.80;99.90
33067;DHT22;19428;49.024;8.366;2023-04-25T00:06:11;8.80;99.90
33067;DHT22;19428;49.024;8.366;2023-04-25T00:08:37;8.80;99.90
33067;DHT22;19428;49.024;8.366;2023-04-25T00:11:03;8.80;99.90
33067;DHT22;19428;49.024;8.366;2023-04-25T00:13:28;8.80;99.90
33067;DHT22;19428;49.024;8.366;2023-04-25T00:15:54;8.80;99.90
33067;DHT22;19428;49.024;8.366;2023-04-25T00:18:21;8.70;99.90
33067;DHT22;19428;49.024;8.366;2023-04-25T00:20:47;8.70;99.90
33067;DHT22;19428;49.024;8.366;2023-04-25T00:23:14;8.70;99.90
33067;DHT22;19428;49.024;8.366;2023-04-25T00:25:50;8.70;99.90
33067;DHT22;19428;49.024;8.366;2023-04-25T00:28:16;8.70;99.90
33067;DHT22;19428;49.024;8.366;2023-04-25T00:30:42;8.70;99.90
33067;DHT22;19428;49.024;8.366;2023-04-25T00:33:09;8.70;99.90
33067;DHT22;19428;49.024;8.366;2023-04-25T00:35:35;8.80;99.90
33067;DHT22;19428;49.024;8.366;2023-04-25T00:38:01;8.80;99.90
33067;DHT22;19428;49.024;8.366;2023-04-25T00:40:27;8.80;99.90
33067;DHT22;19428;49.024;8.366;2023-04-25T00:42:53;8.80;99.90
33067;DHT22;19428;49.024;8.366;2023-04-25T00:45:19;8.80;99.90
33067;DHT22;19428;49.024;8.366;2023-04-25T00:47:46;8.80;99.90
33067;DHT22;19428;49.024;8.366;2023-04-25T00:50:13;8.80;99.90
33067;DHT22;19428;49.024;8.366;2023-04-25T00:52:41;8.70;99.90
33067;DHT22;19428;49.024;8.366;2023-04-25T00:55:08;8.70;99.90
33067;DHT22;19428;49.024;8.366;2023-04-25T00:57:34;8.70;99.90
33067;DHT22;19428;49.024;8.366;2023-04-25T01:00:01;8.70;99.90
33067;DHT22;19428;49.024;8.366;2023-04-25T01:02:27;8.80;99.90
33067;DHT22;19428;49.024;8.366;2023-04-25T01:04:53;8.80;99.90
33067;DHT22;19428;49.024;8.366;2023-04-25T01:07:19;8.80;99.90
33067;DHT22;19428;49.024;8.366;2023-04-25T01:09:45;8.80;99.90
33067;DHT22;19428;49.024;8.366;2023-04-25T01:12:11;8.80;99.90
33067;DHT22;19428;49.024;8.366;2023-04-25T01:14:37;8.80;99.90
33067;DHT22;19428;49.024;8.366;2023-04-25T01:17:03;8.70;99.90
33067;DHT22;19428;49.024;8.366;2023-04-25T01:19:29;8.70;99.90
33067;DHT22;19428;49.024;8.366;2023-04-25T01:21:55;8.70;99.90
33067;DHT22;19428;49.024;8.366;2023-04-25T01:24:21;8.70;99.90
33067;DHT22;19428;49.024;8.366;2023-04-25T01:26:46;8.70;99.90
33067;DHT22;19428;49.024;8.366;2023-04-25T01:29:19;8.70;99.90
33067;DHT22;19428;49.024;8.366;2023-04-25T01:31:45;8.70;99.90
33067;DHT22;19428;49.024;8.366;2023-04-25T01:34:12;8.70;99.90
33067;DHT22;19428;49.024;8.366;2023-04-25T01:36:38;8.70;99.90
33067;DHT22;19428;49.024;8.366;2023-04-25T01:39:04;8.70;99.90
33067;DHT22;19428;49.024;8.366;2023-04-25T01:41:30;8.70;99.90
33067;DHT22;19428;49.024;8.366;2023-04-25T01:43:56;8.80;99.90
33067;DHT22;19428;49.024;8.366;2023-04-25T01:46:22;8.80;99.90
33067;DHT22;19428;49.024;8.366;2023-04-25T01:48:48;8.80;99.90
33067;DHT22;19428;49.024;8.366;2023-04-25T01:51:13;8.80;99.90
33067;DHT22;19428;49.024;8.366;2023-04-25T01:53:40;8.80;99.90
33067;DHT22;19428;49.024;8.366;2023-04-25T01:56:06;8.80;99.90
33067;DHT22;19428;49.024;8.366;2023-04-25T01:58:32;8.90;99.90
33067;DHT22;19428;49.024;8.366;2023-04-25T02:00:57;8.90;99.90
33067;DHT22;19428;49.024;8.366;2023-04-25T02:03:23;8.80;99.90
33067;DHT22;19428;49.024;8.366;2023-04-25T02:05:49;8.80;99.90
33067;DHT22;19428;49.024;8.366;2023-04-25T02:08:16;8.80;99.90
33067;DHT22;19428;49.024;8.366;2023-04-25T02:10:42;8.90;99.90
33067;DHT22;19428;49.024;8.366;2023-04-25T02:13:08;8.90;99.90
33067;DHT22;19428;49.024;8.366;2023-04-25T02:15:33;8.90;99.90
33067;DHT22;19428;49.024;8.366;2023-04-25T02:17:59;8.90;99.90
33067;DHT22;19428;49.024;8.366;2023-04-25T02:20:29;8.90;99.90
33067;DHT22;19428;49.024;8.366;2023-04-25T02:22:55;8.90;99.90
33067;DHT22;19428;49.024;8.366;2023-04-25T02:25:22;8.80;99.90
33067;DHT22;19428;49.024;8.366;2023-04-25T02:27:48;8.80;99.90
33067;DHT22;19428;49.024;8.366;2023-04-25T02:30:14;8.80;99.90
33067;DHT22;19428;49.024;8.366;2023-04-25T02:32:40;8.70;99.90
33067;DHT22;19428;49.024;8.366;2023-04-25T02:35:06;8.70;99.90
33067;DHT22;19428;49.024;8.366;2023-04-25T02:37:33;8.70;99.90
33067;DHT22;19428;49.024;8.366;2023-04-25T02:39:59;8.60;99.90
33067;DHT22;19428;49.024;8.366;2023-04-25T02:42:26;8.60;99.90
33067;DHT22;19428;49.024;8.366;2023-04-25T02:44:51;8.60;99.90
33067;DHT22;19428;49.024;8.366;2023-04-25T02:47:17;8.60;99.90
33067;DHT22;19428;49.024;8.366;2023-04-25T02:49:42;8.60;99.90
33067;DHT22;19428;49.024;8.366;2023-04-25T02:52:08;8.60;99.90
33067;DHT22;19428;49.024;8.366;2023-04-25T02:54:34;8.60;99.90
33067;DHT22;19428;49.024;8.366;2023-04-25T02:57:05;8.60;99.90
33067;DHT22;19428;49.024;8.366;2023-04-25T02:59:31;8.60;99.90
33067;DHT22;19428;49.024;8.366;2023-04-25T03:01:56;8.60;99.90
33067;DHT22;19428;49.024;8.366;2023-04-25T03:04:22;8.60;99.90
33067;DHT22;19428;49.024;8.366;2023-04-25T03:06:52;8.60;99.90
33067;DHT22;19428;49.024;8.366;2023-04-25T03:09:17;8.60;99.90
33067;DHT22;19428;49.024;8.366;2023-04-25T03:11:44;8.60;99.90
33067;DHT22;19428;49.024;8.366;2023-04-25T03:14:11;8.60;99.90
33067;DHT22;19428;49.024;8.366;2023-04-25T03:16:36;8.60;99.90
33067;DHT22;19428;49.024;8.366;2023-04-25T03:19:03;8.50;99.90
33067;DHT22;19428;49.024;8.366;2023-04-25T03:21:29;8.60;99.90
33067;DHT22;19428;49.024;8.366;2023-04-25T03:23:54;8.60;99.90
33067;DHT22;19428;49.024;8.366;2023-04-25T03:26:20;8.60;99.90
33067;DHT22;19428;49.024;8.366;2023-04-25T03:28:46;8.60;99.90
33067;DHT22;19428;49.024;8.366;2023-04-25T03:31:11;8.60;99.90
33067;DHT22;19428;49.024;8.366;2023-04-25T03:33:37;8.50;99.90
33067;DHT22;19428;49.024;8.366;2023-04-25T03:36:03;8.50;99.90
33067;DHT22;19428;49.024;8.366;2023-04-25T03:38:28;8.50;99.90
33067;DHT22;19428;49.024;8.366;2023-04-25T03:40:54;8.60;99.90
33067;DHT22;19428;49.024;8.366;2023-04-25T03:43:21;8.50;99.90
33067;DHT22;19428;49.024;8.366;2023-04-25T03:45:47;8.50;99.90
33067;DHT22;19428;49.024;8.366;2023-04-25T03:48:12;8.50;99.90
33067;DHT22;19428;49.024;8.366;2023-04-25T03:50:38;8.50;99.90
33067;DHT22;19428;49.024;8.366;2023-04-25T03:53:04;8.50;99.90
33067;DHT22;19428;49.024;8.366;2023-04-25T03:55:30;8.50;99.90
33067;DHT22;19428;49.024;8.366;2023-04-25T03:57:57;8.50;99.90
33067;DHT22;19428;49.024;8.366;2023-04-25T04:00:23;8.50;99.90
33067;DHT22;19428;49.024;8.366;2023-04-25T04:02:49;8.50;99.90
33067;DHT22;19428;49.024;8.366;2023-04-25T04:05:15;8.50;99.90
33067;DHT22;19428;49.024;8.366;2023-04-25T04:07:40;8.50;99.90
33067;DHT22;19428;49.024;8.366;2023-04-25T04:10:11;8.50;99.90
33067;DHT22;19428;49.024;8.366;2023-04-25T04:12:37;8.50;99.90
33067;DHT22;19428;49.024;8.366;2023-04-25T04:15:04;8.50;99.90
33067;DHT22;19428;49.024;8.366;2023-04-25T04:17:31;8.50;99.90
33067;DHT22;19428;49.024;8.366;2023-04-25T04:19:56;8.50;99.90
33067;DHT22;19428;49.024;8.366;2023-04-25T04:22:22;8.60;99.90
33067;DHT22;19428;49.024;8.366;2023-04-25T04:24:48;8.50;99.90
33067;DHT22;19428;49.024;8.366;2023-04-25T04:27:16;8.50;99.90
33067;DHT22;19428;49.024;8.366;2023-04-25T04:29:42;8.50;99.90
33067;DHT22;19428;49.024;8.366;2023-04-25T04:32:08;8.50;99.90
33067;DHT22;19428;49.024;8.366;2023-04-25T04:34:34;8.50;99.90
33067;DHT22;19428;49.024;8.366;2023-04-25T04:37:01;8.50;99.90
33067;DHT22;19428;49.024;8.366;2023-04-25T04:39:27;8.50;99.90
33067;DHT22;19428;49.024;8.366;2023-04-25T04:41:53;8.50;99.90
33067;DHT22;19428;49.024;8.366;2023-04-25T04:44:19;8.50;99.90
33067;DHT22;19428;49.024;8.366;2023-04-25T04:46:45;8.50;99.90
33067;DHT22;19428;49.024;8.366;2023-04-25T04:49:12;8.50;99.90
33067;DHT22;19428;49.024;8.366;2023-04-25T04:51:39;8.50;99.90
33067;DHT22;19428;49.024;8.366;2023-04-25T04:54:05;8.60;99.90
33067;DHT22;19428;49.024;8.366;2023-04-25T04:56:31;8.50;99.90
33067;DHT22;19428;49.024;8.366;2023-04-25T04:58:57;8.60;99.90
33067;DHT22;19428;49.024;8.366;2023-04-25T05:01:23;8.60;99.90
33067;DHT22;19428;49.024;8.366;2023-04-25T05:03:49;8.60;99.90
33067;DHT22;19428;49.024;8.366;2023-04-25T05:06:16;8.60;99.90
33067;DHT22;19428;49.024;8.366;2023-04-25T05:08:42;8.60;99.90
33067;DHT22;19428;49.024;8.366;2023-04-25T05:11:07;8.60;99.90
33067;DHT22;19428;49.024;8.366;2023-04-25T05:13:33;8.70;99.90
33067;DHT22;19428;49.024;8.366;2023-04-25T05:15:59;8.70;99.90
33067;DHT22;19428;49.024;8.366;2023-04-25T05:18:24;8.70;99.90
33067;DHT22;19428;49.024;8.366;2023-04-25T05:20:50;8.70;99.90
33067;DHT22;19428;49.024;8.366;2023-04-25T05:23:15;8.80;99.90
33067;DHT22;19428;49.024;8.366;2023-04-25T05:25:41;8.80;99.90
33067;DHT22;19428;49.024;8.366;2023-04-25T05:28:07;8.80;99.90
33067;DHT22;19428;49.024;8.366;2023-04-25T05:30:34;8.80;99.90
33067;DHT22;19428;49.024;8.366;2023-04-25T05:32:59;8.80;99.90
33067;DHT22;19428;49.024;8.366;2023-04-25T05:35:25;8.90;99.90
33067;DHT22;19428;49.024;8.366;2023-04-25T05:37:51;9.00;99.90
33067;DHT22;19428;49.024;8.366;2023-04-25T05:40:17;9.00;99.90
33067;DHT22;19428;49.024;8.366;2023-04-25T05:42:42;9.00;99.90
33067;DHT22;19428;49.024;8.366;2023-04-25T05:45:08;9.00;99.90
33067;DHT22;19428;49.024;8.366;2023-04-25T05:47:35;9.00;99.90
33067;DHT22;19428;49.024;8.366;2023-04-25T05:50:00;9.00;99.90
33067;DHT22;19428;49.024;8.366;2023-04-25T05:52:26;9.00;99.90
33067;DHT22;19428;49.024;8.366;2023-04-25T05:54:51;9.00;99.90
33067;DHT22;19428;49.024;8.366;2023-04-25T05:57:24;8.80;99.90
33067;DHT22;19428;49.024;8.366;2023-04-25T05:59:50;8.90;99.90
33067;DHT22;19428;49.024;8.366;2023-04-25T06:02:16;8.90;99.90
33067;DHT22;19428;49.024;8.366;2023-04-25T06:04:42;8.90;99.90
33067;DHT22;19428;49.024;8.366;2023-04-25T06:07:08;9.00;99.90
33067;DHT22;19428;49.024;8.366;2023-04-25T06:09:34;8.90;99.90
33067;DHT22;19428;49.024;8.366;2023-04-25T06:11:59;8.90;99.90
33067;DHT22;19428;49.024;8.366;2023-04-25T06:14:28;8.90;99.90
33067;DHT22;19428;49.024;8.366;2023-04-25T06:16:54;8.90;99.90
33067;DHT22;19428;49.024;8.366;2023-04-25T06:19:19;8.90;99.90
33067;DHT22;19428;49.024;8.366;2023-04-25T06:21:45;8.90;99.90
33067;DHT22;19428;49.024;8.366;2023-04-25T06:24:11;8.90;99.90
33067;DHT22;19428;49.024;8.366;2023-04-25T06:26:36;9.00;99.90
33067;DHT22;19428;49.024;8.366;2023-04-25T06:29:02;8.90;99.90
33067;DHT22;19428;49.024;8.366;2023-04-25T06:31:28;8.70;99.90
33067;DHT22;19428;49.024;8.366;2023-04-25T06:33:54;8.70;99.90
33067;DHT22;19428;49.024;8.366;2023-04-25T06:36:23;8.70;99.90
33067;DHT22;19428;49.024;8.366;2023-04-25T06:38:53;8.80;99.90
33067;DHT22;19428;49.024;8.366;2023-04-25T06:41:20;8.80;99.90
33067;DHT22;19428;49.024;8.366;2023-04-25T06:43:45;8.70;99.90
33067;DHT22;19428;49.024;8.366;2023-04-25T06:46:11;8.70;99.90
33067;DHT22;19428;49.024;8.366;2023-04-25T06:48:37;8.80;99.90
33067;DHT22;19428;49.024;8.366;2023-04-25T06:51:03;8.70;99.90
33067;DHT22;19428;49.024;8.366;2023-04-25T06:53:28;8.70;99.90
33067;DHT22;19428;49.024;8.366;2023-04-25T06:55:54;8.60;99.90
33067;DHT22;19428;49.024;8.366;2023-04-25T06:58:20;8.80;99.90
33067;DHT22;19428;49.024;8.366;2023-04-25T07:00:45;8.80;99.90
33067;DHT22;19428;49.024;8.366;2023-04-25T07:03:11;8.80;99.90
33067;DHT22;19428;49.024;8.366;2023-04-25T07:05:37;9.00;99.90
33067;DHT22;19428;49.024;8.366;2023-04-25T07:08:03;8.90;99.90
33067;DHT22;19428;49.024;8.366;2023-04-25T07:10:28;8.80;99.90
33067;DHT22;19428;49.024;8.366;2023-04-25T07:12:54;8.80;99.90
33067;DHT22;19428;49.024;8.366;2023-04-25T07:15:20;8.80;99.90
33067;DHT22;19428;49.024;8.366;2023-04-25T07:17:45;8.80;99.90
33067;DHT22;19428;49.024;8.366;2023-04-25T07:20:11;8.80;99.90
33067;DHT22;19428;49.024;8.366;2023-04-25T07:22:37;8.70;99.90
33067;DHT22;19428;49.024;8.366;2023-04-25T07:25:02;8.60;99.90
33067;DHT22;19428;49.024;8.366;2023-04-25T07:27:30;8.60;99.90
33067;DHT22;19428;49.024;8.366;2023-04-25T07:29:55;8.60;99.90
33067;DHT22;19428;49.024;8.366;2023-04-25T07:32:21;8.70;99.90
33067;DHT22;19428;49.024;8.366;2023-04-25T07:34:47;8.80;99.90
33067;DHT22;19428;49.024;8.366;2023-04-25T07:37:13;8.90;99.90
33067;DHT22;19428;49.024;8.366;2023-04-25T07:39:39;8.90;99.90
33067;DHT22;19428;49.024;8.366;2023-04-25T07:42:05;8.80;99.90
33067;DHT22;19428;49.024;8.366;2023-04-25T07:44:34;8.80;99.90
33067;DHT22;19428;49.024;8.366;2023-04-25T07:47:05;8.80;99.90
33067;DHT22;19428;49.024;8.366;2023-04-25T07:49:35;8.70;99.90
33067;DHT22;19428;49.024;8.366;2023-04-25T07:52:02;8.60;99.90
33067;DHT22;19428;49.024;8.366;2023-04-25T07:54:27;8.70;99.90
33067;DHT22;19428;49.024;8.366;2023-04-25T07:56:53;8.80;99.90
33067;DHT22;19428;49.024;8.366;2023-04-25T07:59:19;8.90;99.90
33067;DHT22;19428;49.024;8.366;2023-04-25T08:01:45;8.80;99.90
33067;DHT22;19428;49.024;8.366;2023-04-25T08:04:11;8.80;99.90
33067;DHT22;19428;49.024;8.366;2023-04-25T08:06:36;8.90;99.90
33067;DHT22;19428;49.024;8.366;2023-04-25T08:09:02;8.90;99.90
33067;DHT22;19428;49.024;8.366;2023-04-25T08:11:28;8.90;99.90
33067;DHT22;19428;49.024;8.366;2023-04-25T08:13:54;8.80;99.90
33067;DHT22;19428;49.024;8.366;2023-04-25T08:16:20;8.80;99.90
33067;DHT22;19428;49.024;8.366;2023-04-25T08:18:45;9.00;99.90
33067;DHT22;19428;49.024;8.366;2023-04-25T08:21:11;8.90;99.90
33067;DHT22;19428;49.024;8.366;2023-04-25T08:23:38;8.90;99.90
33067;DHT22;19428;49.024;8.366;2023-04-25T08:26:03;9.00;99.90
33067;DHT22;19428;49.024;8.366;2023-04-25T08:28:30;9.00;99.90
33067;DHT22;19428;49.024;8.366;2023-04-25T08:30:56;8.90;99.90
33067;DHT22;19428;49.024;8.366;2023-04-25T08:33:21;8.80;99.90
33067;DHT22;19428;49.024;8.366;2023-04-25T08:35:47;8.80;99.90
33067;DHT22;19428;49.024;8.366;2023-04-25T08:38:13;8.90;99.90
33067;DHT22;19428;49.024;8.366;2023-04-25T08:40:39;8.90;99.90
33067;DHT22;19428;49.024;8.366;2023-04-25T08:43:06;8.90;99.90
33067;DHT22;19428;49.024;8.366;2023-04-25T08:45:39;8.90;99.90
33067;DHT22;19428;49.024;8.366;2023-04-25T08:48:13;9.00;99.90
33067;DHT22;19428;49.024;8.366;2023-04-25T08:50:50;9.00;99.90
33067;DHT22;19428;49.024;8.366;2023-04-25T08:53:17;8.90;99.90
33067;DHT22;19428;49.024;8.366;2023-04-25T08:55:45;8.90;99.90
33067;DHT22;19428;49.024;8.366;2023-04-25T08:58:12;8.80;99.90
33067;DHT22;19428;49.024;8.366;2023-04-25T09:00:38;8.70;99.90
33067;DHT22;19428;49.024;8.366;2023-04-25T09:03:04;8.70;99.90
33067;DHT22;19428;49.024;8.366;2023-04-25T09:05:30;8.70;99.90
33067;DHT22;19428;49.024;8.366;2023-04-25T09:07:56;8.70;99.90
33067;DHT22;19428;49.024;8.366;2023-04-25T09:10:22;8.90;99.90
33067;DHT22;19428;49.024;8.366;2023-04-25T09:13:08;8.90;99.90
33067;DHT22;19428;49.024;8.366;2023-04-25T09:15:51;8.60;99.90
33067;DHT22;19428;49.024;8.366;2023-04-25T09:18:28;8.60;99.90
33067;DHT22;19428;49.024;8.366;2023-04-25T09:20:56;8.60;99.90
33067;DHT22;19428;49.024;8.366;2023-04-25T09:23:22;8.60;99.90
33067;DHT22;19428;49.024;8.366;2023-04-25T09:25:50;8.70;99.90
33067;DHT22;19428;49.024;8.366;2023-04-25T09:28:16;8.70;99.90
33067;DHT22;19428;49.024;8.366;2023-04-25T09:30:42;8.80;99.90
33067;DHT22;19428;49.024;8.366;2023-04-25T09:33:09;8.80;99.90
33067;DHT22;19428;49.024;8.366;2023-04-25T09:35:43;8.70;99.90
33067;DHT22;19428;49.024;8.366;2023-04-25T09:38:11;7.90;99.90
33067;DHT22;19428;49.024;8.366;2023-04-25T09:40:45;7.90;99.90
33067;DHT22;19428;49.024;8.366;2023-04-25T09:43:24;7.80;99.90
33067;DHT22;19428;49.024;8.366;2023-04-25T09:45:54;7.50;99.90
33067;DHT22;19428;49.024;8.366;2023-04-25T09:48:24;7.40;99.90
33067;DHT22;19428;49.024;8.366;2023-04-25T09:53:39;7.80;99.90
33067;DHT22;19428;49.024;8.366;2023-04-25T09:56:10;7.70;99.90
33067;DHT22;19428;49.024;8.366;2023-04-25T09:58:38;7.80;99.90
33067;DHT22;19428;49.024;8.366;2023-04-25T10:01:08;8.10;99.90
33067;DHT22;19428;49.024;8.366;2023-04-25T10:03:36;8.10;99.90
33067;DHT22;19428;49.024;8.366;2023-04-25T10:06:07;8.50;99.90
33067;DHT22;19428;49.024;8.366;2023-04-25T10:08:35;8.80;99.90
33067;DHT22;19428;49.024;8.366;2023-04-25T10:11:04;9.00;99.90
33067;DHT22;19428;49.024;8.366;2023-04-25T10:13:30;9.30;99.90
33067;DHT22;19428;49.024;8.366;2023-04-25T10:16:02;9.00;99.90
33067;DHT22;19428;49.024;8.366;2023-04-25T10:18:29;9.40;99.90
33067;DHT22;19428;49.024;8.366;2023-04-25T10:21:00;9.10;99.90
33067;DHT22;19428;49.024;8.366;2023-04-25T10:23:27;9.30;99.90
33067;DHT22;19428;49.024;8.366;2023-04-25T10:25:54;9.30;99.90
33067;DHT22;19428;49.024;8.366;2023-04-25T10:28:20;9.30;99.90
33067;DHT22;19428;49.024;8.366;2023-04-25T10:31:03;9.30;99.90
33067;DHT22;19428;49.024;8.366;2023-04-25T10:33:36;9.30;99.90
33067;DHT22;19428;49.024;8.366;2023-04-25T10:36:20;9.10;99.90
33067;DHT22;19428;49.024;8.366;2023-04-25T10:38:48;8.90;99.90
33067;DHT22;19428;49.024;8.366;2023-04-25T10:41:14;9.10;99.90
33067;DHT22;19428;49.024;8.366;2023-04-25T10:43:47;9.30;99.90
33067;DHT22;19428;49.024;8.366;2023-04-25T10:48:50;9.40;99.90
33067;DHT22;19428;49.024;8.366;2023-04-25T10:51:24;9.00;99.90
33067;DHT22;19428;49.024;8.366;2023-04-25T10:54:04;9.10;99.90
33067;DHT22;19428;49.024;8.366;2023-04-25T10:56:41;8.90;99.90
33067;DHT22;19428;49.024;8.366;2023-04-25T10:59:10;8.60;99.90
33067;DHT22;19428;49.024;8.366;2023-04-25T11:01:53;8.70;99.90
33067;DHT22;19428;49.024;8.366;2023-04-25T11:04:32;8.80;99.90
33067;DHT22;19428;49.024;8.366;2023-04-25T11:07:13;8.80;99.90
33067;DHT22;19428;49.024;8.366;2023-04-25T11:09:45;9.30;99.90
33067;DHT22;19428;49.024;8.366;2023-04-25T11:12:11;9.60;99.90
33067;DHT22;19428;49.024;8.366;2023-04-25T11:14:40;9.20;99.90
33067;DHT22;19428;49.024;8.366;2023-04-25T11:17:06;9.20;99.90
33067;DHT22;19428;49.024;8.366;2023-04-25T11:19:32;9.40;99.90
33067;DHT22;19428;49.024;8.366;2023-04-25T11:21:58;9.00;99.90
33067;DHT22;19428;49.024;8.366;2023-04-25T11:24:33;8.70;99.90
33067;DHT22;19428;49.024;8.366;2023-04-25T11:27:01;8.70;99.90
33067;DHT22;19428;49.024;8.366;2023-04-25T11:29:31;8.80;99.90
33067;DHT22;19428;49.024;8.366;2023-04-25T11:31:57;9.00;99.90
33067;DHT22;19428;49.024;8.366;2023-04-25T11:34:23;9.20;99.90
33067;DHT22;19428;49.024;8.366;2023-04-25T11:36:50;9.60;99.90
33067;DHT22;19428;49.024;8.366;2023-04-25T11:39:18;9.50;99.90
33067;DHT22;19428;49.024;8.366;2023-04-25T11:41:44;9.10;99.90
33067;DHT22;19428;49.024;8.366;2023-04-25T11:44:09;9.00;99.90
33067;DHT22;19428;49.024;8.366;2023-04-25T11:46:35;8.90;99.90
33067;DHT22;19428;49.024;8.366;2023-04-25T11:49:02;8.90;99.90
33067;DHT22;19428;49.024;8.366;2023-04-25T11:51:27;9.00;99.90
33067;DHT22;19428;49.024;8.366;2023-04-25T11:53:53;9.10;99.90
33067;DHT22;19428;49.024;8.366;2023-04-25T11:56:18;9.40;99.90
33067;DHT22;19428;49.024;8.366;2023-04-25T11:58:59;9.20;99.90
33067;DHT22;19428;49.024;8.366;2023-04-25T12:01:34;9.30;99.90
33067;DHT22;19428;49.024;8.366;2023-04-25T12:04:14;9.40;99.90
33067;DHT22;19428;49.024;8.366;2023-04-25T12:06:41;9.20;99.90
33067;DHT22;19428;49.024;8.366;2023-04-25T12:09:10;9.20;99.90
33067;DHT22;19428;49.024;8.366;2023-04-25T12:11:47;9.10;99.90
33067;DHT22;19428;49.024;8.366;2023-04-25T12:14:21;9.30;99.90
33067;DHT22;19428;49.024;8.366;2023-04-25T12:16:48;9.50;99.90
33067;DHT22;19428;49.024;8.366;2023-04-25T12:19:15;9.50;99.90
33067;DHT22;19428;49.024;8.366;2023-04-25T12:21:41;9.50;99.90
33067;DHT22;19428;49.024;8.366;2023-04-25T12:24:14;9.60;99.90
33067;DHT22;19428;49.024;8.366;2023-04-25T12:26:58;9.70;99.90
33067;DHT22;19428;49.024;8.366;2023-04-25T12:29:26;9.70;99.90
33067;DHT22;19428;49.024;8.366;2023-04-25T12:31:53;10.10;99.90
33067;DHT22;19428;49.024;8.366;2023-04-25T12:34:19;10.40;99.90
33067;DHT22;19428;49.024;8.366;2023-04-25T12:36:46;10.10;99.90
33067;DHT22;19428;49.024;8.366;2023-04-25T12:39:22;10.00;99.90
33067;DHT22;19428;49.024;8.366;2023-04-25T12:41:51;10.20;99.90
33067;DHT22;19428;49.024;8.366;2023-04-25T12:44:20;10.10;99.90
33067;DHT22;19428;49.024;8.366;2023-04-25T12:46:46;10.50;99.90
33067;DHT22;19428;49.024;8.366;2023-04-25T12:49:12;10.70;99.90
33067;DHT22;19428;49.024;8.366;2023-04-25T12:51:38;10.30;99.90
33067;DHT22;19428;49.024;8.366;2023-04-25T12:54:05;10.20;99.90
33067;DHT22;19428;49.024;8.366;2023-04-25T12:56:32;10.00;99.90
33067;DHT22;19428;49.024;8.366;2023-04-25T12:58:58;9.80;99.90
33067;DHT22;19428;49.024;8.366;2023-04-25T13:01:24;10.00;99.90
33067;DHT22;19428;49.024;8.366;2023-04-25T13:03:50;10.20;99.90
33067;DHT22;19428;49.024;8.366;2023-04-25T13:06:17;10.20;99.90
33067;DHT22;19428;49.024;8.366;2023-04-25T13:08:43;10.40;99.90
33067;DHT22;19428;49.024;8.366;2023-04-25T13:11:09;10.80;99.90
33067;DHT22;19428;49.024;8.366;2023-04-25T13:13:35;11.00;99.90
33067;DHT22;19428;49.024;8.366;2023-04-25T13:16:01;10.80;99.90
33067;DHT22;19428;49.024;8.366;2023-04-25T13:18:28;10.50;99.90
33067;DHT22;19428;49.024;8.366;2023-04-25T13:20:54;10.50;99.90
33067;DHT22;19428;49.024;8.366;2023-04-25T13:23:20;10.40;99.90
33067;DHT22;19428;49.024;8.366;2023-04-25T13:25:46;10.70;99.90
33067;DHT22;19428;49.024;8.366;2023-04-25T13:28:12;11.40;99.90
33067;DHT22;19428;49.024;8.366;2023-04-25T13:30:38;11.30;99.90
33067;DHT22;19428;49.024;8.366;2023-04-25T13:33:04;11.50;99.90
33067;DHT22;19428;49.024;8.366;2023-04-25T13:35:33;11.90;99.90
33067;DHT22;19428;49.024;8.366;2023-04-25T13:37:58;11.30;99.90
33067;DHT22;19428;49.024;8.366;2023-04-25T13:40:24;11.60;99.90
33067;DHT22;19428;49.024;8.366;2023-04-25T13:42:50;12.20;99.90
33067;DHT22;19428;49.024;8.366;2023-04-25T13:45:16;12.00;99.90
33067;DHT22;19428;49.024;8.366;2023-04-25T13:47:42;11.60;99.90
33067;DHT22;19428;49.024;8.366;2023-04-25T13:50:08;11.20;99.90
33067;DHT22;19428;49.024;8.366;2023-04-25T13:52:34;11.20;99.90
33067;DHT22;19428;49.024;8.366;2023-04-25T13:55:00;11.90;99.90
33067;DHT22;19428;49.024;8.366;2023-04-25T13:57:26;11.60;99.90
33067;DHT22;19428;49.024;8.366;2023-04-25T13:59:51;11.50;99.90
33067;DHT22;19428;49.024;8.366;2023-04-25T14:02:18;11.20;99.90
33067;DHT22;19428;49.024;8.366;2023-04-25T14:04:43;11.30;99.90
33067;DHT22;19428;49.024;8.366;2023-04-25T14:07:09;11.50;99.90
33067;DHT22;19428;49.024;8.366;2023-04-25T14:09:36;11.20;99.90
33067;DHT22;19428;49.024;8.366;2023-04-25T14:12:02;11.30;99.90
33067;DHT22;19428;49.024;8.366;2023-04-25T14:14:27;11.80;99.90
33067;DHT22;19428;49.024;8.366;2023-04-25T14:16:53;11.70;99.90
33067;DHT22;19428;49.024;8.366;2023-04-25T14:19:20;12.20;99.90
33067;DHT22;19428;49.024;8.366;2023-04-25T14:21:46;12.30;99.90
33067;DHT22;19428;49.024;8.366;2023-04-25T14:24:12;11.70;99.90
33067;DHT22;19428;49.024;8.366;2023-04-25T14:26:38;12.30;99.90
33067;DHT22;19428;49.024;8.366;2023-04-25T14:29:04;13.20;99.90
33067;DHT22;19428;49.024;8.366;2023-04-25T14:31:31;13.60;99.90
33067;DHT22;19428;49.024;8.366;2023-04-25T14:33:56;12.70;99.90
33067;DHT22;19428;49.024;8.366;2023-04-25T14:36:22;11.80;99.90
33067;DHT22;19428;49.024;8.366;2023-04-25T14:38:48;12.00;99.90
33067;DHT22;19428;49.024;8.366;2023-04-25T14:41:13;11.80;99.90
33067;DHT22;19428;49.024;8.366;2023-04-25T14:43:39;11.70;99.90
33067;DHT22;19428;49.024;8.366;2023-04-25T14:46:07;12.20;99.90
33067;DHT22;19428;49.024;8.366;2023-04-25T14:48:33;11.60;99.90
33067;DHT22;19428;49.024;8.366;2023-04-25T14:50:59;11.70;99.90
33067;DHT22;19428;49.024;8.366;2023-04-25T14:53:25;11.50;99.90
33067;DHT22;19428;49.024;8.366;2023-04-25T14:55:52;11.30;99.90
33067;DHT22;19428;49.024;8.366;2023-04-25T14:58:17;11.50;99.90
33067;DHT22;19428;49.024;8.366;2023-04-25T15:00:43;11.30;99.90
33067;DHT22;19428;49.024;8.366;2023-04-25T15:03:09;11.30;99.90
33067;DHT22;19428;49.024;8.366;2023-04-25T15:05:37;11.30;99.90
33067;DHT22;19428;49.024;8.366;2023-04-25T15:08:04;11.20;99.90
33067;DHT22;19428;49.024;8.366;2023-04-25T15:10:30;11.30;99.90
33067;DHT22;19428;49.024;8.366;2023-04-25T15:12:56;11.20;99.90
33067;DHT22;19428;49.024;8.366;2023-04-25T15:15:22;11.00;99.90
33067;DHT22;19428;49.024;8.366;2023-04-25T15:17:49;10.90;99.90
33067;DHT22;19428;49.024;8.366;2023-04-25T15:20:16;10.80;99.90
33067;DHT22;19428;49.024;8.366;2023-04-25T15:22:43;10.80;99.90
33067;DHT22;19428;49.024;8.366;2023-04-25T15:25:10;10.90;99.90
33067;DHT22;19428;49.024;8.366;2023-04-25T15:27:37;10.70;99.90
33067;DHT22;19428;49.024;8.366;2023-04-25T15:30:07;10.60;99.90
33067;DHT22;19428;49.024;8.366;2023-04-25T15:32:33;10.50;99.90
33067;DHT22;19428;49.024;8.366;2023-04-25T15:35:02;10.40;99.90
33067;DHT22;19428;49.024;8.366;2023-04-25T15:37:28;10.20;99.90
33067;DHT22;19428;49.024;8.366;2023-04-25T15:40:02;10.20;99.90
33067;DHT22;19428;49.024;8.366;2023-04-25T15:42:35;10.00;99.90
33067;DHT22;19428;49.024;8.366;2023-04-25T15:45:03;9.80;99.90
33067;DHT22;19428;49.024;8.366;2023-04-25T15:47:29;9.80;99.90